Davenport, Virginia
Current Conditions -  °F | °C
As of 11:15 AM on Wednesday 28 Jan 2015 (Local Time) from KJFZ Reporting Station
Clear Clear  
Wind Chill: 22°   Ceiling: Unl
Heat Index: 22°   Visibility: 10mi
Dew Point: 12°   Wind: 0mph
Humidity: 66%   Direction: NA
Pressure: 30.24"   Gusts: NA
Location:  37.1°N, 82.14°W
Report Text: KJFZ 281615Z AUTO 00000KT 10SM CLR M06/M11 A3024 RMK AO2 T10561110
Loading
Personal Weather Stations






























Interactive Weather Map New forecast layout! Learn more

10-Day Weather Forecast

Advertisements
Track Severe Weather on mobile